Time;durP1;ratioP1;P1;durP2;ratioP2;P2;SDS_P1;SDS_P2;PMS_P1;PMS_P2;Temp;Humidity;BMP_temperature;BMP_pressure;BME280_temperature;BME280_humidity;BME280_pressure;Samples;Min_cycle;Max_cycle;Signal;HPM_P1;HPM_P2
2022/10/21 00:02:12;;;;;;;33.33;24.10;;;;;;;;;;5113072;28;20226;-67
2022/10/21 00:04:38;;;;;;;30.60;22.67;;;;;;;;;;5114160;28;20687;-67
2022/10/21 00:07:04;;;;;;;35.07;23.60;;;;;;;;;;5114402;28;20266;-67
2022/10/21 00:09:30;;;;;;;37.47;25.03;;;;;;;;;;5114553;28;20215;-67
2022/10/21 00:11:56;;;;;;;43.20;25.90;;;;;;;;;;5114063;28;20180;-67
2022/10/21 00:14:22;;;;;;;48.50;28.33;;;;;;;;;;5113960;28;20261;-67
2022/10/21 00:16:47;;;;;;;55.77;29.03;;;;;;;;;;5112747;28;20260;-67
2022/10/21 00:19:13;;;;;;;49.47;28.00;;;;;;;;;;5114033;28;20172;-67
2022/10/21 00:21:41;;;;;;;50.20;26.67;;;;;;;;;;5114324;28;20615;-67
2022/10/21 00:24:07;;;;;;;70.30;33.23;;;;;;;;;;5113053;28;20203;-67
2022/10/21 00:26:33;;;;;;;74.33;32.47;;;;;;;;;;5114639;28;20176;-68
2022/10/21 00:28:59;;;;;;;51.63;26.87;;;;;;;;;;5113821;28;20263;-67
2022/10/21 00:31:26;;;;;;;33.70;21.93;;;;;;;;;;5112542;28;20212;-68
2022/10/21 00:33:52;;;;;;;35.57;22.07;;;;;;;;;;5112293;28;20311;-68
2022/10/21 00:36:18;;;;;;;32.07;20.73;;;;;;;;;;5112504;28;20632;-67
2022/10/21 00:38:45;;;;;;;26.63;19.37;;;;;;;;;;5113739;28;20540;-66
2022/10/21 00:41:12;;;;;;;30.03;19.43;;;;;;;;;;5113743;28;20168;-67
2022/10/21 00:43:55;;;;;;;27.37;19.63;;;;;;;;;;5112440;28;20177;-67
2022/10/21 00:46:25;;;;;;;31.20;20.37;;;;;;;;;;5112600;28;20268;-68
2022/10/21 00:48:55;;;;;;;23.83;18.60;;;;;;;;;;5114509;28;20171;-67
2022/10/21 00:51:21;;;;;;;28.50;20.17;;;;;;;;;;5114814;28;20172;-67
2022/10/21 00:53:48;;;;;;;28.90;19.43;;;;;;;;;;5114684;28;20658;-68
2022/10/21 00:56:16;;;;;;;29.57;20.43;;;;;;;;;;5112568;28;20237;-71
2022/10/21 00:58:43;;;;;;;30.13;20.23;;;;;;;;;;5112539;28;20265;-67
2022/10/21 01:01:09;;;;;;;28.97;18.97;;;;;;;;;;5115563;28;20184;-67
2022/10/21 01:03:35;;;;;;;29.00;19.47;;;;;;;;;;5125058;28;20195;-67
2022/10/21 01:06:03;;;;;;;31.20;18.47;;;;;;;;;;5116539;28;20179;-67
2022/10/21 01:08:30;;;;;;;25.20;16.60;;;;;;;;;;5114281;28;20181;-67
2022/10/21 01:10:56;;;;;;;22.20;15.40;;;;;;;;;;5113371;28;20218;-67
2022/10/21 01:13:28;;;;;;;22.33;15.77;;;;;;;;;;5113904;28;20200;-68
2022/10/21 01:15:57;;;;;;;21.93;16.17;;;;;;;;;;5113403;28;20536;-67
2022/10/21 01:18:31;;;;;;;19.50;16.37;;;;;;;;;;5113738;28;20663;-68
2022/10/21 01:21:00;;;;;;;23.90;16.40;;;;;;;;;;5113451;28;20318;-68
2022/10/21 01:23:29;;;;;;;25.93;17.20;;;;;;;;;;5113673;28;20172;-68
2022/10/21 01:26:04;;;;;;;33.60;21.03;;;;;;;;;;5111974;28;20207;-67
2022/10/21 01:28:33;;;;;;;75.73;35.97;;;;;;;;;;5113423;28;20180;-68
2022/10/21 01:31:09;;;;;;;56.80;27.77;;;;;;;;;;5113522;28;20645;-68
2022/10/21 01:33:40;;;;;;;48.77;25.67;;;;;;;;;;5113554;28;20208;-67
2022/10/21 01:36:15;;;;;;;46.57;24.03;;;;;;;;;;5114199;28;20191;-69
2022/10/21 01:38:43;;;;;;;56.63;26.80;;;;;;;;;;5115928;28;20209;-67
2022/10/21 01:41:39;;;;;;;75.83;33.80;;;;;;;;;;5117208;28;20203;-68
2022/10/21 01:44:17;;;;;;;70.50;33.50;;;;;;;;;;5107088;28;20672;-67
2022/10/21 01:46:45;;;;;;;50.47;26.17;;;;;;;;;;5116852;28;20641;-69
2022/10/21 01:49:31;;;;;;;57.50;26.53;;;;;;;;;;5117219;28;20707;-67
2022/10/21 01:51:58;;;;;;;50.87;27.10;;;;;;;;;;5115358;28;20199;-68
2022/10/21 01:54:30;;;;;;;53.30;27.73;;;;;;;;;;5116591;28;20216;-68
2022/10/21 01:56:57;;;;;;;53.87;29.80;;;;;;;;;;5117104;28;20164;-68
2022/10/21 01:59:24;;;;;;;48.23;28.43;;;;;;;;;;5115410;28;20180;-69
2022/10/21 02:01:51;;;;;;;50.33;27.23;;;;;;;;;;5117068;28;20255;-68
2022/10/21 02:04:17;;;;;;;54.30;27.10;;;;;;;;;;5116966;27;20222;-66
2022/10/21 02:06:43;;;;;;;39.60;25.87;;;;;;;;;;5116766;27;20180;-68
2022/10/21 02:09:09;;;;;;;45.53;25.50;;;;;;;;;;5115603;27;20228;-67
2022/10/21 02:11:37;;;;;;;39.27;25.33;;;;;;;;;;5115174;28;20648;-68
2022/10/21 02:14:12;;;;;;;48.40;27.63;;;;;;;;;;5114949;28;20216;-68
2022/10/21 02:16:39;;;;;;;48.83;27.90;;;;;;;;;;5116731;28;20163;-68
2022/10/21 02:19:11;;;;;;;43.67;25.83;;;;;;;;;;5115096;28;20177;-68
2022/10/21 02:21:37;;;;;;;41.57;25.10;;;;;;;;;;5115139;28;20176;-67
2022/10/21 02:24:09;;;;;;;43.27;25.60;;;;;;;;;;5116465;28;20208;-68
2022/10/21 02:26:35;;;;;;;44.50;26.00;;;;;;;;;;5118302;28;20177;-68
2022/10/21 02:29:01;;;;;;;35.60;22.53;;;;;;;;;;5120159;28;20704;-68
2022/10/21 02:31:46;;;;;;;39.50;23.77;;;;;;;;;;5121605;28;20219;-67
2022/10/21 02:34:30;;;;;;;42.20;25.13;;;;;;;;;;5121264;28;20770;-68
2022/10/21 02:36:56;;;;;;;34.90;23.30;;;;;;;;;;5115900;27;20173;-68
2022/10/21 02:39:45;;;;;;;36.17;23.63;;;;;;;;;;5114620;28;20267;-68
2022/10/21 02:42:16;;;;;;;41.93;25.47;;;;;;;;;;5109155;28;20191;-68
2022/10/21 02:44:42;;;;;;;38.10;25.07;;;;;;;;;;5116286;28;20192;-68
2022/10/21 02:47:08;;;;;;;38.23;24.87;;;;;;;;;;5114827;28;20234;-68
2022/10/21 02:49:34;;;;;;;36.77;23.27;;;;;;;;;;5115599;28;20172;-69
2022/10/21 02:52:00;;;;;;;27.60;18.50;;;;;;;;;;5114376;28;20271;-68
2022/10/21 02:54:26;;;;;;;26.67;19.40;;;;;;;;;;5115606;28;20208;-68
2022/10/21 02:56:52;;;;;;;24.83;18.73;;;;;;;;;;5116139;28;20237;-66
2022/10/21 02:59:18;;;;;;;31.17;19.97;;;;;;;;;;5114441;28;20268;-67
2022/10/21 03:01:43;;;;;;;31.00;20.33;;;;;;;;;;5115468;28;20180;-68
2022/10/21 03:04:09;;;;;;;24.07;18.33;;;;;;;;;;5115597;28;20207;-68
2022/10/21 03:06:35;;;;;;;30.27;18.83;;;;;;;;;;5115291;28;20184;-67
2022/10/21 03:09:01;;;;;;;25.37;17.33;;;;;;;;;;5114037;28;20230;-68
2022/10/21 03:11:27;;;;;;;21.37;15.17;;;;;;;;;;5114203;28;20179;-68
2022/10/21 03:13:53;;;;;;;27.97;16.70;;;;;;;;;;5115164;28;20200;-68
2022/10/21 03:16:19;;;;;;;36.77;20.60;;;;;;;;;;5115207;27;20194;-68
2022/10/21 03:18:45;;;;;;;42.30;20.17;;;;;;;;;;5115249;28;20176;-68
2022/10/21 03:21:11;;;;;;;65.63;25.37;;;;;;;;;;5115151;28;20273;-68
2022/10/21 03:23:37;;;;;;;49.87;21.90;;;;;;;;;;5115295;28;20230;-68
2022/10/21 03:26:03;;;;;;;42.77;19.20;;;;;;;;;;5113969;28;20180;-68
2022/10/21 03:28:29;;;;;;;36.77;18.13;;;;;;;;;;5114935;28;20183;-68
2022/10/21 03:30:55;;;;;;;39.30;17.17;;;;;;;;;;5115126;28;20544;-68
2022/10/21 03:33:21;;;;;;;28.73;15.70;;;;;;;;;;5115109;28;20254;-68
2022/10/21 03:35:47;;;;;;;26.93;14.77;;;;;;;;;;5114612;28;20247;-68
2022/10/21 03:38:13;;;;;;;19.33;12.80;;;;;;;;;;5113512;28;20180;-67
2022/10/21 03:40:39;;;;;;;22.93;14.30;;;;;;;;;;5114655;28;20208;-68
2022/10/21 03:43:05;;;;;;;22.37;12.13;;;;;;;;;;5114760;28;20176;-68
2022/10/21 03:45:31;;;;;;;15.97;11.17;;;;;;;;;;5113455;28;20201;-68
2022/10/21 03:47:57;;;;;;;15.23;10.47;;;;;;;;;;5114878;27;20184;-71
2022/10/21 03:50:23;;;;;;;15.70;10.77;;;;;;;;;;5114795;28;20180;-68
2022/10/21 03:52:49;;;;;;;13.10;10.73;;;;;;;;;;5114600;28;20636;-68
2022/10/21 03:55:19;;;;;;;15.37;11.03;;;;;;;;;;5114286;28;20284;-68
2022/10/21 03:57:45;;;;;;;13.80;10.40;;;;;;;;;;5112904;28;20200;-69
2022/10/21 04:00:11;;;;;;;15.40;10.90;;;;;;;;;;5114380;27;20169;-68
2022/10/21 04:02:37;;;;;;;16.97;10.60;;;;;;;;;;5114370;28;20169;-68
2022/10/21 04:05:03;;;;;;;15.40;10.57;;;;;;;;;;5114470;28;20200;-68
2022/10/21 04:07:30;;;;;;;13.27;9.60;;;;;;;;;;5114196;28;20604;-69
2022/10/21 04:09:55;;;;;;;13.43;9.30;;;;;;;;;;5114423;28;20181;-68
2022/10/21 04:12:21;;;;;;;19.00;10.57;;;;;;;;;;5114055;28;20269;-68
2022/10/21 04:14:47;;;;;;;15.23;9.60;;;;;;;;;;5114084;28;20211;-68
2022/10/21 04:17:13;;;;;;;14.77;8.47;;;;;;;;;;5112824;28;20233;-68
2022/10/21 04:19:39;;;;;;;13.83;9.10;;;;;;;;;;5112868;28;20182;-68
2022/10/21 04:22:05;;;;;;;12.37;8.53;;;;;;;;;;5113932;28;20215;-67
2022/10/21 04:24:31;;;;;;;11.47;7.50;;;;;;;;;;5113863;28;20194;-68
2022/10/21 04:26:57;;;;;;;13.70;8.83;;;;;;;;;;5112571;28;20637;-68
2022/10/21 04:29:23;;;;;;;12.67;8.27;;;;;;;;;;5113914;28;20188;-68
2022/10/21 04:31:49;;;;;;;12.27;8.90;;;;;;;;;;5113762;28;20265;-67
2022/10/21 04:34:15;;;;;;;9.20;8.30;;;;;;;;;;5112251;28;20220;-67
2022/10/21 04:36:41;;;;;;;10.90;7.90;;;;;;;;;;5112599;28;20172;-67
2022/10/21 04:39:07;;;;;;;14.27;8.13;;;;;;;;;;5114137;28;20182;-67
2022/10/21 04:41:33;;;;;;;9.97;8.53;;;;;;;;;;5112626;28;20181;-67
2022/10/21 04:43:59;;;;;;;12.17;8.67;;;;;;;;;;5114185;28;20623;-67
2022/10/21 04:46:25;;;;;;;13.40;9.73;;;;;;;;;;5112807;28;20666;-68
2022/10/21 04:48:51;;;;;;;13.93;10.17;;;;;;;;;;5112533;28;20215;-68
2022/10/21 04:51:16;;;;;;;13.17;9.57;;;;;;;;;;5113761;28;20180;-68
2022/10/21 04:53:42;;;;;;;11.17;8.97;;;;;;;;;;5114365;28;20192;-68
2022/10/21 04:56:08;;;;;;;16.40;9.33;;;;;;;;;;5113897;28;20211;-67
2022/10/21 04:58:34;;;;;;;9.70;8.00;;;;;;;;;;5112309;28;20176;-68
2022/10/21 05:01:00;;;;;;;10.17;8.60;;;;;;;;;;5114309;28;20515;-67
2022/10/21 05:03:26;;;;;;;9.53;8.17;;;;;;;;;;5113018;28;20204;-67
2022/10/21 05:05:52;;;;;;;9.63;7.13;;;;;;;;;;5112192;28;20719;-68
2022/10/21 05:08:18;;;;;;;7.53;6.03;;;;;;;;;;5114047;28;20657;-67
2022/10/21 05:10:44;;;;;;;12.00;6.70;;;;;;;;;;5115146;28;20210;-68
2022/10/21 05:13:10;;;;;;;11.07;6.90;;;;;;;;;;5117251;28;20177;-68
2022/10/21 05:15:36;;;;;;;10.10;6.30;;;;;;;;;;5115971;28;20243;-67
2022/10/21 05:18:03;;;;;;;9.63;6.50;;;;;;;;;;5116055;28;20542;-68
2022/10/21 05:20:29;;;;;;;7.83;5.97;;;;;;;;;;5117308;28;20183;-67
2022/10/21 05:22:55;;;;;;;8.07;6.13;;;;;;;;;;5116009;28;20172;-67
2022/10/21 05:25:21;;;;;;;8.13;5.63;;;;;;;;;;5116095;28;20623;-67
2022/10/21 05:27:47;;;;;;;10.43;6.07;;;;;;;;;;5117478;28;20188;-68
2022/10/21 05:30:13;;;;;;;9.83;6.10;;;;;;;;;;5116945;28;20257;-67
2022/10/21 05:32:40;;;;;;;8.00;6.33;;;;;;;;;;5115491;28;20687;-69
2022/10/21 05:35:06;;;;;;;11.47;7.00;;;;;;;;;;5116746;28;20216;-67
2022/10/21 05:37:32;;;;;;;11.53;7.67;;;;;;;;;;5115581;28;20185;-68
2022/10/21 05:39:58;;;;;;;14.37;7.73;;;;;;;;;;5115817;28;20230;-67
2022/10/21 05:42:24;;;;;;;13.17;8.47;;;;;;;;;;5115856;28;20164;-67
2022/10/21 05:44:50;;;;;;;10.77;7.27;;;;;;;;;;5116936;28;20200;-69
2022/10/21 05:47:16;;;;;;;16.33;9.23;;;;;;;;;;5115665;28;20275;-67
2022/10/21 05:49:42;;;;;;;17.20;8.30;;;;;;;;;;5116799;28;20183;-67
2022/10/21 05:52:08;;;;;;;14.20;7.63;;;;;;;;;;5116769;28;20195;-67
2022/10/21 05:54:34;;;;;;;7.83;6.63;;;;;;;;;;5116580;28;20212;-67
2022/10/21 05:57:01;;;;;;;18.47;7.60;;;;;;;;;;5117239;28;20542;-67
2022/10/21 05:59:27;;;;;;;11.40;7.83;;;;;;;;;;5115503;28;20173;-67
2022/10/21 06:01:53;;;;;;;10.47;7.37;;;;;;;;;;5117038;28;20181;-67
2022/10/21 06:04:19;;;;;;;14.87;11.50;;;;;;;;;;5116837;28;20196;-67
2022/10/21 06:06:45;;;;;;;14.63;11.70;;;;;;;;;;5115670;28;20212;-67
2022/10/21 06:09:11;;;;;;;29.70;19.90;;;;;;;;;;5117028;28;20183;-67
2022/10/21 06:11:37;;;;;;;32.70;22.10;;;;;;;;;;5117146;28;20184;-68
2022/10/21 06:14:03;;;;;;;42.10;26.60;;;;;;;;;;5115247;28;20216;-67
2022/10/21 06:16:29;;;;;;;41.73;27.23;;;;;;;;;;5117269;28;20176;-68
2022/10/21 06:18:55;;;;;;;39.40;24.00;;;;;;;;;;5117802;27;20176;-68
2022/10/21 06:21:21;;;;;;;35.33;19.80;;;;;;;;;;5116281;28;20183;-68
2022/10/21 06:23:47;;;;;;;32.03;17.20;;;;;;;;;;5115032;28;20181;-67
2022/10/21 06:26:14;;;;;;;26.37;17.13;;;;;;;;;;5116663;28;20597;-67
2022/10/21 06:28:41;;;;;;;26.07;13.87;;;;;;;;;;5116407;28;20542;-67
2022/10/21 06:31:08;;;;;;;19.53;10.93;;;;;;;;;;5114982;28;20180;-67
2022/10/21 06:33:34;;;;;;;15.10;10.50;;;;;;;;;;5114704;28;20287;-68
2022/10/21 06:36:00;;;;;;;12.67;9.57;;;;;;;;;;5116735;28;20631;-67
2022/10/21 06:38:26;;;;;;;21.53;11.97;;;;;;;;;;5114856;28;20173;-67
2022/10/21 06:40:53;;;;;;;19.00;13.30;;;;;;;;;;5115957;28;20172;-67
2022/10/21 06:43:19;;;;;;;28.13;16.90;;;;;;;;;;5116064;27;20628;-68
2022/10/21 06:45:45;;;;;;;23.63;15.80;;;;;;;;;;5114683;28;20204;-68
2022/10/21 06:48:12;;;;;;;18.63;14.37;;;;;;;;;;5114779;28;20722;-69
2022/10/21 06:50:38;;;;;;;20.97;13.90;;;;;;;;;;5115939;27;20165;-68
2022/10/21 06:53:04;;;;;;;18.40;12.23;;;;;;;;;;5116048;28;20603;-68
2022/10/21 06:55:30;;;;;;;15.83;12.43;;;;;;;;;;5114211;28;20261;-68
2022/10/21 06:57:56;;;;;;;14.03;9.13;;;;;;;;;;5114494;28;20173;-67
2022/10/21 07:00:22;;;;;;;13.70;9.60;;;;;;;;;;5115884;28;20624;-67
2022/10/21 07:02:48;;;;;;;10.70;7.90;;;;;;;;;;5115683;27;20648;-67
2022/10/21 07:05:14;;;;;;;17.87;10.10;;;;;;;;;;5115378;28;20196;-68
2022/10/21 07:07:39;;;;;;;13.53;8.93;;;;;;;;;;5115630;28;20555;-68
2022/10/21 07:10:06;;;;;;;12.30;8.50;;;;;;;;;;5115883;28;20177;-68
2022/10/21 07:12:31;;;;;;;12.07;7.63;;;;;;;;;;5115446;28;20738;-68
2022/10/21 07:14:58;;;;;;;9.27;7.47;;;;;;;;;;5113933;28;20306;-68
2022/10/21 07:17:24;;;;;;;11.90;6.73;;;;;;;;;;5114081;28;20180;-68
2022/10/21 07:19:50;;;;;;;13.00;6.07;;;;;;;;;;5115264;28;20168;-68
2022/10/21 07:22:16;;;;;;;11.30;5.07;;;;;;;;;;5115392;28;20179;-68
2022/10/21 07:24:42;;;;;;;10.40;5.60;;;;;;;;;;5114835;28;20280;-68
2022/10/21 07:27:08;;;;;;;8.87;4.90;;;;;;;;;;5114969;28;20632;-68
2022/10/21 07:29:34;;;;;;;7.57;4.57;;;;;;;;;;5114693;28;20181;-68
2022/10/21 07:32:00;;;;;;;7.83;5.03;;;;;;;;;;5113371;28;20184;-68
2022/10/21 07:34:26;;;;;;;11.90;5.50;;;;;;;;;;5114230;28;20231;-68
2022/10/21 07:36:52;;;;;;;13.23;6.03;;;;;;;;;;5113450;28;20185;-68
2022/10/21 07:39:20;;;;;;;10.80;5.40;;;;;;;;;;5114923;28;20184;-68
2022/10/21 07:41:48;;;;;;;9.70;5.70;;;;;;;;;;5114544;28;20646;-68
2022/10/21 07:44:14;;;;;;;8.37;5.23;;;;;;;;;;5114432;28;20212;-68
2022/10/21 07:46:41;;;;;;;9.17;5.47;;;;;;;;;;5113298;28;20191;-69
2022/10/21 07:49:08;;;;;;;10.63;5.77;;;;;;;;;;5114998;28;20633;-68
2022/10/21 07:51:34;;;;;;;14.57;10.13;;;;;;;;;;5113875;28;20191;-68
2022/10/21 07:54:00;;;;;;;10.33;6.13;;;;;;;;;;5115172;28;20581;-68
2022/10/21 07:56:28;;;;;;;8.57;5.73;;;;;;;;;;5114400;28;20260;-68
2022/10/21 07:58:54;;;;;;;8.97;6.00;;;;;;;;;;5114042;28;20537;-68
2022/10/21 08:01:20;;;;;;;9.37;5.57;;;;;;;;;;5113005;28;20173;-68
2022/10/21 08:03:46;;;;;;;10.47;6.07;;;;;;;;;;5114277;28;20177;-68
2022/10/21 08:06:14;;;;;;;10.03;5.53;;;;;;;;;;5114487;28;20628;-68
2022/10/21 08:08:40;;;;;;;7.50;5.40;;;;;;;;;;5112803;28;20186;-68
2022/10/21 08:11:06;;;;;;;11.93;6.40;;;;;;;;;;5114077;28;20177;-68
2022/10/21 08:13:33;;;;;;;7.00;5.70;;;;;;;;;;5113949;28;20196;-69
2022/10/21 08:16:00;;;;;;;7.60;5.53;;;;;;;;;;5114090;28;20221;-68
2022/10/21 08:18:26;;;;;;;11.20;5.80;;;;;;;;;;5114104;28;20176;-68
2022/10/21 08:20:53;;;;;;;9.07;5.47;;;;;;;;;;5114077;28;20593;-68
2022/10/21 08:23:19;;;;;;;10.57;5.63;;;;;;;;;;5112780;28;20554;-68
2022/10/21 08:25:46;;;;;;;8.47;6.03;;;;;;;;;;5113751;28;20192;-68
2022/10/21 08:28:12;;;;;;;11.60;6.20;;;;;;;;;;5112540;28;20281;-68
2022/10/21 08:30:38;;;;;;;7.17;5.43;;;;;;;;;;5112594;28;20242;-68
2022/10/21 08:33:04;;;;;;;9.43;5.80;;;;;;;;;;5112544;28;20641;-68
2022/10/21 08:35:30;;;;;;;8.53;5.70;;;;;;;;;;5112129;28;20212;-68
2022/10/21 08:37:56;;;;;;;11.83;6.00;;;;;;;;;;5112969;28;20592;-68
2022/10/21 08:40:22;;;;;;;7.73;5.90;;;;;;;;;;5115249;28;20186;-68
2022/10/21 08:42:48;;;;;;;13.87;6.20;;;;;;;;;;5114657;28;20648;-68
2022/10/21 08:45:23;;;;;;;9.70;5.83;;;;;;;;;;5115942;28;20575;-69
2022/10/21 08:47:51;;;;;;;12.23;6.27;;;;;;;;;;5118385;28;20166;-69
2022/10/21 08:50:33;;;;;;;11.17;5.60;;;;;;;;;;5117965;28;20632;-68
2022/10/21 08:53:01;;;;;;;8.30;6.33;;;;;;;;;;5118016;28;20528;-71
2022/10/21 08:55:35;;;;;;;8.97;6.03;;;;;;;;;;5117734;28;20668;-68
2022/10/21 08:58:01;;;;;;;9.47;5.37;;;;;;;;;;5117847;28;20176;-69
2022/10/21 09:00:32;;;;;;;9.97;6.13;;;;;;;;;;5117685;28;20275;-68
2022/10/21 09:03:05;;;;;;;13.63;6.17;;;;;;;;;;5117833;28;20219;-68
2022/10/21 09:05:30;;;;;;;8.53;6.83;;;;;;;;;;5116152;28;20664;-68
2022/10/21 09:08:10;;;;;;;9.67;6.57;;;;;;;;;;5116423;28;20187;-68
2022/10/21 09:10:46;;;;;;;8.30;6.40;;;;;;;;;;5117637;28;20168;-67
2022/10/21 09:13:17;;;;;;;7.20;6.17;;;;;;;;;;5117543;27;20164;-68
2022/10/21 09:15:52;;;;;;;10.13;6.10;;;;;;;;;;5116101;28;20208;-67
2022/10/21 09:18:27;;;;;;;13.77;6.97;;;;;;;;;;5116422;28;20176;-68
2022/10/21 09:21:02;;;;;;;11.10;6.60;;;;;;;;;;5116184;28;20624;-68
2022/10/21 09:23:35;;;;;;;10.27;7.47;;;;;;;;;;5117316;28;20173;-67
2022/10/21 09:26:20;;;;;;;11.83;6.90;;;;;;;;;;5115990;28;20173;-68
2022/10/21 09:28:46;;;;;;;8.40;6.83;;;;;;;;;;5117532;28;20176;-67
2022/10/21 09:31:15;;;;;;;14.83;7.10;;;;;;;;;;5117148;28;20180;-66
2022/10/21 09:33:43;;;;;;;9.57;7.33;;;;;;;;;;5115387;28;20211;-67
2022/10/21 09:36:18;;;;;;;7.90;7.10;;;;;;;;;;5117173;28;20161;-67
2022/10/21 09:39:07;;;;;;;11.57;7.67;;;;;;;;;;5116950;28;20288;-65
2022/10/21 09:41:37;;;;;;;14.63;7.80;;;;;;;;;;5116985;28;20165;-67
2022/10/21 09:44:03;;;;;;;17.00;8.17;;;;;;;;;;5117426;28;20244;-67
2022/10/21 09:46:29;;;;;;;17.10;7.93;;;;;;;;;;5116882;28;20255;-69
2022/10/21 09:48:55;;;;;;;15.07;8.13;;;;;;;;;;5116951;28;20581;-67
2022/10/21 09:51:26;;;;;;;17.40;9.57;;;;;;;;;;5116729;28;20683;-67
2022/10/21 09:53:53;;;;;;;15.60;10.87;;;;;;;;;;5115130;28;20200;-68
2022/10/21 09:56:28;;;;;;;16.23;11.37;;;;;;;;;;5116674;28;20176;-67
2022/10/21 09:59:14;;;;;;;24.97;13.47;;;;;;;;;;5116530;28;20251;-66
2022/10/21 10:01:41;;;;;;;23.47;14.30;;;;;;;;;;5116523;28;20183;-66
2022/10/21 10:04:12;;;;;;;24.87;14.37;;;;;;;;;;5117042;28;20318;-66
2022/10/21 10:06:40;;;;;;;19.50;13.33;;;;;;;;;;5115221;28;20176;-66
2022/10/21 10:09:06;;;;;;;20.73;12.57;;;;;;;;;;5116757;28;20184;-65
2022/10/21 10:11:32;;;;;;;20.50;13.23;;;;;;;;;;5115190;28;20181;-66
2022/10/21 10:13:57;;;;;;;16.43;10.43;;;;;;;;;;5116212;28;20215;-66
2022/10/21 10:16:28;;;;;;;15.87;11.00;;;;;;;;;;5116575;28;20215;-66
2022/10/21 10:19:13;;;;;;;16.37;11.13;;;;;;;;;;5116061;28;20180;-67
2022/10/21 10:21:39;;;;;;;15.37;10.63;;;;;;;;;;5116306;28;20520;-69
2022/10/21 10:24:05;;;;;;;14.90;10.00;;;;;;;;;;5116097;28;20203;-69
2022/10/21 10:26:32;;;;;;;18.77;9.60;;;;;;;;;;5114805;28;20180;-69
2022/10/21 10:29:07;;;;;;;13.87;9.67;;;;;;;;;;5116071;28;20177;-69
2022/10/21 10:31:34;;;;;;;17.27;9.87;;;;;;;;;;5116137;27;20206;-69
2022/10/21 10:34:04;;;;;;;16.70;9.63;;;;;;;;;;5116006;28;20265;-67
2022/10/21 10:36:33;;;;;;;15.90;8.73;;;;;;;;;;5116132;28;20243;-69
2022/10/21 10:39:00;;;;;;;14.50;8.60;;;;;;;;;;5114683;28;20552;-68
2022/10/21 10:41:39;;;;;;;11.33;7.97;;;;;;;;;;5114482;28;20176;-69
2022/10/21 10:44:10;;;;;;;16.17;8.47;;;;;;;;;;5115853;28;20571;-70
2022/10/21 10:46:36;;;;;;;11.47;8.33;;;;;;;;;;5114457;28;20535;-69
2022/10/21 10:49:14;;;;;;;13.27;7.83;;;;;;;;;;5115574;28;20252;-70
2022/10/21 10:51:41;;;;;;;13.93;7.83;;;;;;;;;;5115772;28;20176;-70
2022/10/21 10:54:26;;;;;;;14.07;7.70;;;;;;;;;;5115985;28;20216;-69
2022/10/21 10:57:00;;;;;;;21.17;9.60;;;;;;;;;;5114404;28;20679;-67
2022/10/21 10:59:35;;;;;;;20.53;10.70;;;;;;;;;;5116409;27;20176;-68
2022/10/21 11:02:08;;;;;;;21.47;11.70;;;;;;;;;;5115565;28;20184;-69
2022/10/21 11:04:39;;;;;;;18.17;10.60;;;;;;;;;;5115367;28;20241;-70
2022/10/21 11:07:12;;;;;;;17.63;10.73;;;;;;;;;;5115237;28;20259;-68
2022/10/21 11:09:38;;;;;;;17.10;9.53;;;;;;;;;;5115314;28;20207;-68
2022/10/21 11:12:06;;;;;;;16.80;9.90;;;;;;;;;;5114059;28;20663;-68
2022/10/21 11:14:32;;;;;;;14.67;7.67;;;;;;;;;;5113755;28;20595;-70
2022/10/21 11:17:09;;;;;;;13.07;7.87;;;;;;;;;;5115279;28;20168;-69
2022/10/21 11:19:54;;;;;;;11.83;7.70;;;;;;;;;;5115161;27;20177;-69
2022/10/21 11:22:44;;;;;;;15.80;8.77;;;;;;;;;;5113816;28;20661;-69
2022/10/21 11:25:19;;;;;;;10.67;7.10;;;;;;;;;;5113700;28;20196;-70
2022/10/21 11:27:57;;;;;;;11.47;7.30;;;;;;;;;;5113576;28;20649;-69
2022/10/21 11:30:32;;;;;;;12.40;7.40;;;;;;;;;;5113589;28;20206;-70
2022/10/21 11:32:58;;;;;;;12.27;7.47;;;;;;;;;;5113647;28;20172;-70
2022/10/21 11:35:32;;;;;;;12.33;7.47;;;;;;;;;;5113255;28;20220;-71
2022/10/21 11:38:09;;;;;;;18.10;10.83;;;;;;;;;;5113377;28;20175;-71
2022/10/21 11:40:38;;;;;;;19.73;10.83;;;;;;;;;;5114724;28;20210;-69
2022/10/21 11:43:24;;;;;;;15.63;9.83;;;;;;;;;;5114654;28;20177;-72
2022/10/21 11:46:09;;;;;;;14.90;9.90;;;;;;;;;;5110514;28;20216;-71
2022/10/21 11:48:53;;;;;;;13.30;8.80;;;;;;;;;;5113172;28;20271;-71
2022/10/21 11:51:30;;;;;;;14.43;7.67;;;;;;;;;;5114380;28;20176;-70
2022/10/21 11:54:20;;;;;;;11.67;8.00;;;;;;;;;;5112958;28;20239;-71
2022/10/21 11:56:59;;;;;;;14.63;7.50;;;;;;;;;;5114204;28;20240;-71
2022/10/21 11:59:31;;;;;;;14.00;7.17;;;;;;;;;;5113783;28;20195;-70
2022/10/21 12:02:00;;;;;;;11.90;6.70;;;;;;;;;;5113327;28;20180;-71
2022/10/21 12:04:32;;;;;;;8.87;6.40;;;;;;;;;;5114268;28;20214;-70
2022/10/21 12:07:03;;;;;;;13.00;5.50;;;;;;;;;;5114058;28;20624;-71
2022/10/21 12:09:32;;;;;;;11.77;6.50;;;;;;;;;;5112818;28;20180;-70
2022/10/21 12:12:24;;;;;;;10.37;6.10;;;;;;;;;;5112701;28;20184;-71
2022/10/21 12:15:03;;;;;;;11.13;5.73;;;;;;;;;;5112652;28;20251;-70
2022/10/21 12:17:32;;;;;;;10.80;5.73;;;;;;;;;;5114022;28;20627;-70
2022/10/21 12:19:59;;;;;;;7.97;5.80;;;;;;;;;;5113690;28;20249;-69
2022/10/21 12:22:26;;;;;;;10.47;4.77;;;;;;;;;;5115347;28;20168;-69
2022/10/21 12:25:02;;;;;;;8.23;4.80;;;;;;;;;;5112768;28;20219;-68
2022/10/21 12:27:46;;;;;;;7.57;4.57;;;;;;;;;;5112948;28;20581;-68
2022/10/21 12:30:30;;;;;;;7.87;4.70;;;;;;;;;;5112608;27;20667;-68
2022/10/21 12:32:56;;;;;;;8.00;4.47;;;;;;;;;;5114192;28;20173;-68
2022/10/21 12:35:40;;;;;;;6.93;4.00;;;;;;;;;;5113703;28;20215;-69
2022/10/21 12:38:19;;;;;;;8.47;4.87;;;;;;;;;;5112522;28;20263;-69
2022/10/21 12:40:45;;;;;;;9.73;4.73;;;;;;;;;;5113233;28;20164;-68
2022/10/21 12:43:21;;;;;;;12.80;4.80;;;;;;;;;;5112261;28;20187;-68
2022/10/21 12:46:00;;;;;;;11.80;5.13;;;;;;;;;;5112110;28;20203;-68
2022/10/21 12:48:30;;;;;;;7.73;5.30;;;;;;;;;;5112233;28;20585;-68
2022/10/21 12:51:01;;;;;;;10.13;4.20;;;;;;;;;;5113675;28;20223;-68
2022/10/21 12:53:37;;;;;;;4.67;3.33;;;;;;;;;;5113677;28;20218;-68
2022/10/21 12:56:04;;;;;;;5.80;3.70;;;;;;;;;;5112333;28;20183;-68
2022/10/21 12:58:40;;;;;;;6.17;3.13;;;;;;;;;;5113504;28;20172;-67
2022/10/21 13:01:07;;;;;;;5.37;3.17;;;;;;;;;;5112130;28;20178;-68
2022/10/21 13:03:45;;;;;;;8.60;3.50;;;;;;;;;;5113481;28;20184;-68
2022/10/21 13:06:11;;;;;;;8.47;3.63;;;;;;;;;;5113318;28;20644;-67
2022/10/21 13:08:40;;;;;;;7.53;3.90;;;;;;;;;;5113874;28;20264;-67
2022/10/21 13:11:09;;;;;;;7.17;4.03;;;;;;;;;;5113531;28;20175;-68
2022/10/21 13:13:36;;;;;;;15.27;4.10;;;;;;;;;;5111931;28;20172;-68
2022/10/21 13:16:17;;;;;;;6.10;4.77;;;;;;;;;;5113201;28;20234;-67
2022/10/21 13:18:52;;;;;;;8.33;4.33;;;;;;;;;;5111972;28;20263;-67
2022/10/21 13:21:25;;;;;;;12.73;4.30;;;;;;;;;;5113267;28;20258;-68
2022/10/21 13:23:53;;;;;;;4.87;4.33;;;;;;;;;;5113221;28;20184;-69
2022/10/21 13:26:20;;;;;;;6.27;4.37;;;;;;;;;;5113262;28;20176;-68
2022/10/21 13:28:57;;;;;;;6.87;3.50;;;;;;;;;;5111916;28;20176;-67
2022/10/21 13:31:23;;;;;;;8.87;3.30;;;;;;;;;;5114182;28;20652;-68
2022/10/21 13:33:53;;;;;;;5.37;2.83;;;;;;;;;;5117489;28;20705;-67
2022/10/21 13:36:41;;;;;;;6.33;3.27;;;;;;;;;;5115915;28;20188;-68
2022/10/21 13:39:26;;;;;;;6.93;3.17;;;;;;;;;;5116248;28;20182;-68
2022/10/21 13:41:56;;;;;;;7.77;3.57;;;;;;;;;;5115628;28;20176;-68
2022/10/21 13:44:27;;;;;;;9.07;4.03;;;;;;;;;;5115385;28;20287;-69
2022/10/21 13:46:52;;;;;;;5.93;3.97;;;;;;;;;;5117024;28;20607;-69
2022/10/21 13:49:29;;;;;;;7.73;4.37;;;;;;;;;;5116979;28;20204;-69
2022/10/21 13:51:55;;;;;;;5.67;4.17;;;;;;;;;;5116800;28;20172;-69
2022/10/21 13:54:21;;;;;;;6.53;4.40;;;;;;;;;;5115310;28;20222;-69
2022/10/21 13:56:47;;;;;;;10.60;3.97;;;;;;;;;;5115365;28;20176;-69
2022/10/21 13:59:21;;;;;;;7.53;3.73;;;;;;;;;;5116558;28;20198;-70
2022/10/21 14:01:51;;;;;;;8.37;4.50;;;;;;;;;;5116847;28;20671;-70
2022/10/21 14:04:24;;;;;;;6.37;3.80;;;;;;;;;;5116325;28;20631;-69
2022/10/21 14:06:52;;;;;;;6.63;3.93;;;;;;;;;;5116349;28;20678;-70
2022/10/21 14:09:29;;;;;;;9.80;4.20;;;;;;;;;;5115024;28;20184;-69
2022/10/21 14:12:01;;;;;;;5.53;4.00;;;;;;;;;;5114953;28;20180;-69
2022/10/21 14:14:28;;;;;;;5.00;3.67;;;;;;;;;;5116057;28;20589;-69
2022/10/21 14:16:56;;;;;;;8.50;4.67;;;;;;;;;;5116522;28;20180;-69
2022/10/21 14:19:25;;;;;;;6.33;4.17;;;;;;;;;;5116145;28;20169;-69
2022/10/21 14:21:55;;;;;;;7.70;3.60;;;;;;;;;;5114885;28;20173;-70
2022/10/21 14:24:27;;;;;;;8.47;4.03;;;;;;;;;;5115933;28;20196;-70
2022/10/21 14:26:54;;;;;;;10.73;4.50;;;;;;;;;;5114696;28;20173;-69
2022/10/21 14:29:21;;;;;;;10.10;4.70;;;;;;;;;;5114623;28;20177;-69
2022/10/21 14:31:47;;;;;;;7.97;4.50;;;;;;;;;;5116478;28;20172;-69
2022/10/21 14:34:26;;;;;;;8.73;4.67;;;;;;;;;;5116537;28;20208;-68
2022/10/21 14:37:19;;;;;;;21.87;11.87;;;;;;;;;;5116794;28;20147;-68
2022/10/21 14:39:45;;;;;;;11.30;6.23;;;;;;;;;;5115636;28;20182;-67
2022/10/21 14:42:15;;;;;;;5.10;3.87;;;;;;;;;;5116181;28;20234;-68